sensor_id;sensor_type;location;lat;lon;timestamp;temperature;humidity
21318;DHT22;10818;50.830;6.524;2023-07-20T00:04:59;18.70;99.90
21318;DHT22;10818;50.830;6.524;2023-07-20T00:09:59;18.60;99.90
21318;DHT22;10818;50.830;6.524;2023-07-20T00:15:00;18.60;99.90
21318;DHT22;10818;50.830;6.524;2023-07-20T00:20:00;18.60;99.90
21318;DHT22;10818;50.830;6.524;2023-07-20T00:25:01;18.60;99.90
21318;DHT22;10818;50.830;6.524;2023-07-20T00:30:02;18.50;99.90
21318;DHT22;10818;50.830;6.524;2023-07-20T00:35:02;18.40;99.90
21318;DHT22;10818;50.830;6.524;2023-07-20T00:40:03;18.40;99.90
21318;DHT22;10818;50.830;6.524;2023-07-20T00:45:04;18.30;99.90
21318;DHT22;10818;50.830;6.524;2023-07-20T00:50:05;18.10;99.90
21318;DHT22;10818;50.830;6.524;2023-07-20T00:55:06;17.90;99.90
21318;DHT22;10818;50.830;6.524;2023-07-20T01:00:07;17.80;99.90
21318;DHT22;10818;50.830;6.524;2023-07-20T01:05:08;17.70;99.90
21318;DHT22;10818;50.830;6.524;2023-07-20T01:10:14;17.60;99.90
21318;DHT22;10818;50.830;6.524;2023-07-20T01:15:16;17.50;99.90
21318;DHT22;10818;50.830;6.524;2023-07-20T01:20:18;17.40;99.90
21318;DHT22;10818;50.830;6.524;2023-07-20T01:35:42;17.20;99.90
21318;DHT22;10818;50.830;6.524;2023-07-20T01:40:44;17.10;99.90
21318;DHT22;10818;50.830;6.524;2023-07-20T01:45:44;16.90;99.90
21318;DHT22;10818;50.830;6.524;2023-07-20T01:50:45;16.90;99.90
21318;DHT22;10818;50.830;6.524;2023-07-20T01:55:45;16.90;99.90
21318;DHT22;10818;50.830;6.524;2023-07-20T02:00:46;16.90;99.90
21318;DHT22;10818;50.830;6.524;2023-07-20T02:05:46;16.90;99.90
21318;DHT22;10818;50.830;6.524;2023-07-20T02:10:47;16.80;99.90
21318;DHT22;10818;50.830;6.524;2023-07-20T02:15:48;16.80;99.90
21318;DHT22;10818;50.830;6.524;2023-07-20T02:20:49;16.80;99.90
21318;DHT22;10818;50.830;6.524;2023-07-20T02:25:50;16.70;99.90
21318;DHT22;10818;50.830;6.524;2023-07-20T02:30:50;16.70;99.90
21318;DHT22;10818;50.830;6.524;2023-07-20T02:35:50;16.70;99.90
21318;DHT22;10818;50.830;6.524;2023-07-20T02:40:51;16.50;99.90
21318;DHT22;10818;50.830;6.524;2023-07-20T02:45:52;16.50;99.90
21318;DHT22;10818;50.830;6.524;2023-07-20T02:50:53;16.60;99.90
21318;DHT22;10818;50.830;6.524;2023-07-20T02:55:53;16.50;99.90
21318;DHT22;10818;50.830;6.524;2023-07-20T03:00:54;16.70;99.90
21318;DHT22;10818;50.830;6.524;2023-07-20T03:05:54;16.80;99.90
21318;DHT22;10818;50.830;6.524;2023-07-20T03:10:56;16.90;99.90
21318;DHT22;10818;50.830;6.524;2023-07-20T03:15:56;17.10;99.90
21318;DHT22;10818;50.830;6.524;2023-07-20T03:20:57;17.30;99.90
21318;DHT22;10818;50.830;6.524;2023-07-20T03:25:58;17.30;99.90
21318;DHT22;10818;50.830;6.524;2023-07-20T03:30:59;17.30;99.90
21318;DHT22;10818;50.830;6.524;2023-07-20T03:35:59;17.20;99.90
21318;DHT22;10818;50.830;6.524;2023-07-20T03:41:00;17.10;99.90
21318;DHT22;10818;50.830;6.524;2023-07-20T03:46:00;16.90;99.90
21318;DHT22;10818;50.830;6.524;2023-07-20T03:51:01;16.90;99.90
21318;DHT22;10818;50.830;6.524;2023-07-20T03:56:02;16.90;99.90
21318;DHT22;10818;50.830;6.524;2023-07-20T04:01:02;16.80;99.90
21318;DHT22;10818;50.830;6.524;2023-07-20T04:06:03;16.80;99.90
21318;DHT22;10818;50.830;6.524;2023-07-20T04:11:03;16.90;99.90
21318;DHT22;10818;50.830;6.524;2023-07-20T04:16:04;16.80;99.90
21318;DHT22;10818;50.830;6.524;2023-07-20T04:21:04;17.10;99.90
21318;DHT22;10818;50.830;6.524;2023-07-20T04:26:05;17.40;99.90
21318;DHT22;10818;50.830;6.524;2023-07-20T04:31:10;17.50;99.90
21318;DHT22;10818;50.830;6.524;2023-07-20T04:36:12;17.60;99.90
21318;DHT22;10818;50.830;6.524;2023-07-20T04:41:14;17.80;99.90
21318;DHT22;10818;50.830;6.524;2023-07-20T04:46:15;18.00;99.90
21318;DHT22;10818;50.830;6.524;2023-07-20T04:51:17;18.10;99.90
21318;DHT22;10818;50.830;6.524;2023-07-20T04:56:21;18.40;99.90
21318;DHT22;10818;50.830;6.524;2023-07-20T05:01:23;18.30;99.90
21318;DHT22;10818;50.830;6.524;2023-07-20T05:06:23;18.40;99.90
21318;DHT22;10818;50.830;6.524;2023-07-20T05:11:24;18.30;99.90
21318;DHT22;10818;50.830;6.524;2023-07-20T05:16:24;18.40;99.90
21318;DHT22;10818;50.830;6.524;2023-07-20T05:21:25;18.50;99.90
21318;DHT22;10818;50.830;6.524;2023-07-20T05:26:25;18.40;99.90
21318;DHT22;10818;50.830;6.524;2023-07-20T05:31:26;18.70;99.90
21318;DHT22;10818;50.830;6.524;2023-07-20T05:36:26;18.70;99.90
21318;DHT22;10818;50.830;6.524;2023-07-20T05:41:27;18.90;99.90
21318;DHT22;10818;50.830;6.524;2023-07-20T05:46:27;19.00;99.90
21318;DHT22;10818;50.830;6.524;2023-07-20T05:51:28;19.20;99.90
21318;DHT22;10818;50.830;6.524;2023-07-20T05:56:28;19.20;99.90
21318;DHT22;10818;50.830;6.524;2023-07-20T06:01:28;19.10;99.90
21318;DHT22;10818;50.830;6.524;2023-07-20T06:06:31;19.10;99.90
21318;DHT22;10818;50.830;6.524;2023-07-20T06:11:31;19.10;99.90
21318;DHT22;10818;50.830;6.524;2023-07-20T06:16:32;19.20;99.90
21318;DHT22;10818;50.830;6.524;2023-07-20T06:21:32;19.50;99.90
21318;DHT22;10818;50.830;6.524;2023-07-20T06:26:33;19.60;99.90
21318;DHT22;10818;50.830;6.524;2023-07-20T06:31:39;19.50;99.90
21318;DHT22;10818;50.830;6.524;2023-07-20T06:36:39;19.30;99.90
21318;DHT22;10818;50.830;6.524;2023-07-20T06:41:40;19.60;99.90
21318;DHT22;10818;50.830;6.524;2023-07-20T06:46:40;19.30;99.90
21318;DHT22;10818;50.830;6.524;2023-07-20T06:51:41;19.70;99.90
21318;DHT22;10818;50.830;6.524;2023-07-20T06:56:41;20.30;99.90
21318;DHT22;10818;50.830;6.524;2023-07-20T07:01:42;20.30;99.90
21318;DHT22;10818;50.830;6.524;2023-07-20T07:06:42;20.40;99.90
21318;DHT22;10818;50.830;6.524;2023-07-20T07:11:43;20.80;99.90
21318;DHT22;10818;50.830;6.524;2023-07-20T07:16:43;21.40;99.90
21318;DHT22;10818;50.830;6.524;2023-07-20T07:21:44;22.00;99.90
21318;DHT22;10818;50.830;6.524;2023-07-20T07:26:44;22.80;99.90
21318;DHT22;10818;50.830;6.524;2023-07-20T07:31:45;22.70;99.90
21318;DHT22;10818;50.830;6.524;2023-07-20T07:36:45;25.70;99.90
21318;DHT22;10818;50.830;6.524;2023-07-20T07:41:47;30.80;99.90
21318;DHT22;10818;50.830;6.524;2023-07-20T07:46:47;37.50;81.70
21318;DHT22;10818;50.830;6.524;2023-07-20T07:51:49;38.30;70.70
21318;DHT22;10818;50.830;6.524;2023-07-20T07:56:50;42.10;58.90
21318;DHT22;10818;50.830;6.524;2023-07-20T08:01:51;43.60;50.80
21318;DHT22;10818;50.830;6.524;2023-07-20T08:06:52;40.80;52.30
21318;DHT22;10818;50.830;6.524;2023-07-20T08:11:53;42.40;49.90
21318;DHT22;10818;50.830;6.524;2023-07-20T08:16:53;38.50;51.70
21318;DHT22;10818;50.830;6.524;2023-07-20T08:21:54;34.30;57.70
21318;DHT22;10818;50.830;6.524;2023-07-20T08:26:55;31.50;66.00
21318;DHT22;10818;50.830;6.524;2023-07-20T08:31:55;30.20;67.10
21318;DHT22;10818;50.830;6.524;2023-07-20T08:36:56;32.40;63.80
21318;DHT22;10818;50.830;6.524;2023-07-20T08:41:56;32.30;63.40
21318;DHT22;10818;50.830;6.524;2023-07-20T08:46:59;30.00;65.90
21318;DHT22;10818;50.830;6.524;2023-07-20T08:52:00;28.40;72.00
21318;DHT22;10818;50.830;6.524;2023-07-20T08:57:01;27.80;73.60
21318;DHT22;10818;50.830;6.524;2023-07-20T09:02:02;28.20;73.20
21318;DHT22;10818;50.830;6.524;2023-07-20T09:07:04;28.50;75.20
21318;DHT22;10818;50.830;6.524;2023-07-20T09:12:05;29.00;72.80
21318;DHT22;10818;50.830;6.524;2023-07-20T09:17:13;29.50;71.40
21318;DHT22;10818;50.830;6.524;2023-07-20T09:22:14;29.70;69.50
21318;DHT22;10818;50.830;6.524;2023-07-20T09:27:14;30.10;68.40
21318;DHT22;10818;50.830;6.524;2023-07-20T09:32:17;30.00;68.40
21318;DHT22;10818;50.830;6.524;2023-07-20T09:37:21;29.40;67.80
21318;DHT22;10818;50.830;6.524;2023-07-20T09:42:22;29.10;70.70
21318;DHT22;10818;50.830;6.524;2023-07-20T09:47:25;28.90;70.80
21318;DHT22;10818;50.830;6.524;2023-07-20T09:52:27;29.40;70.40
21318;DHT22;10818;50.830;6.524;2023-07-20T09:57:27;28.90;70.30
21318;DHT22;10818;50.830;6.524;2023-07-20T10:02:32;28.40;73.90
21318;DHT22;10818;50.830;6.524;2023-07-20T10:07:33;28.50;70.40
21318;DHT22;10818;50.830;6.524;2023-07-20T10:17:47;29.40;70.50
21318;DHT22;10818;50.830;6.524;2023-07-20T10:22:50;29.60;70.00
21318;DHT22;10818;50.830;6.524;2023-07-20T10:27:52;28.80;70.50
21318;DHT22;10818;50.830;6.524;2023-07-20T10:32:53;28.80;72.90
21318;DHT22;10818;50.830;6.524;2023-07-20T10:37:54;28.90;72.60
21318;DHT22;10818;50.830;6.524;2023-07-20T10:43:16;29.40;71.30
21318;DHT22;10818;50.830;6.524;2023-07-20T10:48:17;29.30;71.90
21318;DHT22;10818;50.830;6.524;2023-07-20T10:53:18;29.30;72.10
21318;DHT22;10818;50.830;6.524;2023-07-20T10:58:19;29.00;72.60
21318;DHT22;10818;50.830;6.524;2023-07-20T11:03:31;28.80;73.00
21318;DHT22;10818;50.830;6.524;2023-07-20T11:08:38;28.70;74.50
21318;DHT22;10818;50.830;6.524;2023-07-20T11:13:49;29.00;72.10
21318;DHT22;10818;50.830;6.524;2023-07-20T11:18:53;29.20;71.30
21318;DHT22;10818;50.830;6.524;2023-07-20T11:23:55;28.60;70.40
21318;DHT22;10818;50.830;6.524;2023-07-20T11:28:56;28.40;71.10
21318;DHT22;10818;50.830;6.524;2023-07-20T11:33:56;28.20;73.20
21318;DHT22;10818;50.830;6.524;2023-07-20T11:38:57;28.60;71.40
21318;DHT22;10818;50.830;6.524;2023-07-20T11:43:58;28.50;70.50
21318;DHT22;10818;50.830;6.524;2023-07-20T11:48:59;28.90;73.10
21318;DHT22;10818;50.830;6.524;2023-07-20T11:54:00;28.70;70.80
21318;DHT22;10818;50.830;6.524;2023-07-20T11:59:01;28.70;70.10
21318;DHT22;10818;50.830;6.524;2023-07-20T12:04:03;28.80;69.40
21318;DHT22;10818;50.830;6.524;2023-07-20T12:09:03;28.70;68.70
21318;DHT22;10818;50.830;6.524;2023-07-20T12:14:06;29.10;68.60
21318;DHT22;10818;50.830;6.524;2023-07-20T12:19:08;29.40;68.70
21318;DHT22;10818;50.830;6.524;2023-07-20T12:24:10;29.40;69.80
21318;DHT22;10818;50.830;6.524;2023-07-20T12:29:10;29.70;66.50
21318;DHT22;10818;50.830;6.524;2023-07-20T12:34:11;29.90;67.70
21318;DHT22;10818;50.830;6.524;2023-07-20T12:39:11;29.80;66.70
21318;DHT22;10818;50.830;6.524;2023-07-20T12:44:12;29.30;67.70
21318;DHT22;10818;50.830;6.524;2023-07-20T12:49:12;29.40;66.70
21318;DHT22;10818;50.830;6.524;2023-07-20T12:54:13;29.30;66.60
21318;DHT22;10818;50.830;6.524;2023-07-20T12:59:13;29.00;68.10
21318;DHT22;10818;50.830;6.524;2023-07-20T13:04:13;28.20;68.30
21318;DHT22;10818;50.830;6.524;2023-07-20T13:09:14;28.30;69.00
21318;DHT22;10818;50.830;6.524;2023-07-20T13:14:14;28.70;68.70
21318;DHT22;10818;50.830;6.524;2023-07-20T13:19:15;28.70;67.40
21318;DHT22;10818;50.830;6.524;2023-07-20T13:24:15;29.00;68.40
21318;DHT22;10818;50.830;6.524;2023-07-20T13:29:16;28.70;68.20
21318;DHT22;10818;50.830;6.524;2023-07-20T13:34:17;28.60;67.70
21318;DHT22;10818;50.830;6.524;2023-07-20T13:39:18;29.00;67.10
21318;DHT22;10818;50.830;6.524;2023-07-20T13:44:18;29.40;65.40
21318;DHT22;10818;50.830;6.524;2023-07-20T13:49:19;29.20;65.20
21318;DHT22;10818;50.830;6.524;2023-07-20T13:54:19;29.20;66.10
21318;DHT22;10818;50.830;6.524;2023-07-20T13:59:19;28.60;65.80
21318;DHT22;10818;50.830;6.524;2023-07-20T14:04:20;28.40;66.20
21318;DHT22;10818;50.830;6.524;2023-07-20T14:09:21;28.10;66.30
21318;DHT22;10818;50.830;6.524;2023-07-20T14:14:21;28.40;67.00
21318;DHT22;10818;50.830;6.524;2023-07-20T14:19:22;27.90;65.60
21318;DHT22;10818;50.830;6.524;2023-07-20T14:24:22;27.90;67.20
21318;DHT22;10818;50.830;6.524;2023-07-20T14:29:23;27.70;66.90
21318;DHT22;10818;50.830;6.524;2023-07-20T14:34:23;27.00;68.20
21318;DHT22;10818;50.830;6.524;2023-07-20T14:39:24;27.50;67.80
21318;DHT22;10818;50.830;6.524;2023-07-20T14:44:24;28.00;66.50
21318;DHT22;10818;50.830;6.524;2023-07-20T14:49:25;28.00;67.10
21318;DHT22;10818;50.830;6.524;2023-07-20T14:54:26;28.00;65.90
21318;DHT22;10818;50.830;6.524;2023-07-20T14:59:26;28.00;65.70
21318;DHT22;10818;50.830;6.524;2023-07-20T15:04:27;28.20;65.50
21318;DHT22;10818;50.830;6.524;2023-07-20T15:09:28;28.60;63.70
21318;DHT22;10818;50.830;6.524;2023-07-20T15:14:28;28.20;63.00
21318;DHT22;10818;50.830;6.524;2023-07-20T15:19:29;28.80;63.20
21318;DHT22;10818;50.830;6.524;2023-07-20T15:24:30;28.90;63.60
21318;DHT22;10818;50.830;6.524;2023-07-20T15:29:30;28.60;62.50
21318;DHT22;10818;50.830;6.524;2023-07-20T15:34:31;28.50;62.70
21318;DHT22;10818;50.830;6.524;2023-07-20T15:39:31;28.40;63.20
21318;DHT22;10818;50.830;6.524;2023-07-20T15:44:32;28.20;63.10
21318;DHT22;10818;50.830;6.524;2023-07-20T15:49:32;27.80;61.90
21318;DHT22;10818;50.830;6.524;2023-07-20T15:54:33;27.70;62.10
21318;DHT22;10818;50.830;6.524;2023-07-20T15:59:34;28.00;62.00
21318;DHT22;10818;50.830;6.524;2023-07-20T16:04:35;27.80;63.10
21318;DHT22;10818;50.830;6.524;2023-07-20T16:09:36;27.50;63.20
21318;DHT22;10818;50.830;6.524;2023-07-20T16:14:37;27.30;63.90
21318;DHT22;10818;50.830;6.524;2023-07-20T16:19:38;27.60;65.40
21318;DHT22;10818;50.830;6.524;2023-07-20T16:24:38;27.40;63.10
21318;DHT22;10818;50.830;6.524;2023-07-20T16:29:39;27.50;63.70
21318;DHT22;10818;50.830;6.524;2023-07-20T16:34:39;27.60;63.70
21318;DHT22;10818;50.830;6.524;2023-07-20T16:39:39;27.40;64.10
21318;DHT22;10818;50.830;6.524;2023-07-20T16:44:41;26.80;65.60
21318;DHT22;10818;50.830;6.524;2023-07-20T16:49:42;26.70;65.10
21318;DHT22;10818;50.830;6.524;2023-07-20T16:54:42;26.60;64.80
21318;DHT22;10818;50.830;6.524;2023-07-20T16:59:42;26.10;65.80
21318;DHT22;10818;50.830;6.524;2023-07-20T17:04:44;26.00;66.80
21318;DHT22;10818;50.830;6.524;2023-07-20T17:09:47;25.70;67.10
21318;DHT22;10818;50.830;6.524;2023-07-20T17:14:49;26.00;67.20
21318;DHT22;10818;50.830;6.524;2023-07-20T17:24:53;25.50;67.50
21318;DHT22;10818;50.830;6.524;2023-07-20T17:29:53;25.50;66.70
21318;DHT22;10818;50.830;6.524;2023-07-20T17:34:54;25.40;66.70
21318;DHT22;10818;50.830;6.524;2023-07-20T17:39:56;25.20;68.20
21318;DHT22;10818;50.830;6.524;2023-07-20T17:44:57;24.90;69.20
21318;DHT22;10818;50.830;6.524;2023-07-20T17:49:57;24.90;69.20
21318;DHT22;10818;50.830;6.524;2023-07-20T17:54:58;25.10;69.10
21318;DHT22;10818;50.830;6.524;2023-07-20T18:00:00;25.10;69.10
21318;DHT22;10818;50.830;6.524;2023-07-20T18:05:00;24.80;69.90
21318;DHT22;10818;50.830;6.524;2023-07-20T18:10:01;24.50;70.60
21318;DHT22;10818;50.830;6.524;2023-07-20T18:15:04;24.30;71.40
21318;DHT22;10818;50.830;6.524;2023-07-20T18:20:05;24.10;72.80
21318;DHT22;10818;50.830;6.524;2023-07-20T18:25:06;23.90;73.40
21318;DHT22;10818;50.830;6.524;2023-07-20T18:30:07;23.90;74.40
21318;DHT22;10818;50.830;6.524;2023-07-20T18:35:08;24.00;73.90
21318;DHT22;10818;50.830;6.524;2023-07-20T18:40:08;23.90;74.90
21318;DHT22;10818;50.830;6.524;2023-07-20T18:45:09;23.70;75.80
21318;DHT22;10818;50.830;6.524;2023-07-20T18:50:10;23.50;77.70
21318;DHT22;10818;50.830;6.524;2023-07-20T18:55:11;23.50;80.00
21318;DHT22;10818;50.830;6.524;2023-07-20T19:00:12;23.20;81.00
21318;DHT22;10818;50.830;6.524;2023-07-20T19:05:14;23.10;82.30
21318;DHT22;10818;50.830;6.524;2023-07-20T19:10:14;23.10;84.20
21318;DHT22;10818;50.830;6.524;2023-07-20T19:15:15;23.10;86.10
21318;DHT22;10818;50.830;6.524;2023-07-20T19:20:15;22.90;85.40
21318;DHT22;10818;50.830;6.524;2023-07-20T19:25:16;22.80;87.10
21318;DHT22;10818;50.830;6.524;2023-07-20T19:30:16;22.70;87.30
21318;DHT22;10818;50.830;6.524;2023-07-20T19:35:17;22.60;89.20
21318;DHT22;10818;50.830;6.524;2023-07-20T19:40:17;22.50;89.70
21318;DHT22;10818;50.830;6.524;2023-07-20T19:45:18;22.60;91.50
21318;DHT22;10818;50.830;6.524;2023-07-20T19:50:18;22.50;92.40
21318;DHT22;10818;50.830;6.524;2023-07-20T19:55:18;22.40;92.70
21318;DHT22;10818;50.830;6.524;2023-07-20T20:00:19;22.30;92.30
21318;DHT22;10818;50.830;6.524;2023-07-20T20:05:21;22.40;93.10
21318;DHT22;10818;50.830;6.524;2023-07-20T20:10:21;22.40;96.30
21318;DHT22;10818;50.830;6.524;2023-07-20T20:15:21;21.60;99.90
21318;DHT22;10818;50.830;6.524;2023-07-20T20:20:22;20.80;99.90
21318;DHT22;10818;50.830;6.524;2023-07-20T20:25:23;20.30;99.90
21318;DHT22;10818;50.830;6.524;2023-07-20T20:30:23;19.90;99.90
21318;DHT22;10818;50.830;6.524;2023-07-20T20:35:24;19.60;99.90
21318;DHT22;10818;50.830;6.524;2023-07-20T20:40:24;19.30;99.90
21318;DHT22;10818;50.830;6.524;2023-07-20T20:45:27;19.10;99.90
21318;DHT22;10818;50.830;6.524;2023-07-20T20:50:28;19.00;99.90
21318;DHT22;10818;50.830;6.524;2023-07-20T20:55:28;18.70;99.90
21318;DHT22;10818;50.830;6.524;2023-07-20T21:00:29;18.70;99.90
21318;DHT22;10818;50.830;6.524;2023-07-20T21:05:33;18.50;99.90
21318;DHT22;10818;50.830;6.524;2023-07-20T21:10:34;18.40;99.90
21318;DHT22;10818;50.830;6.524;2023-07-20T21:15:35;18.40;99.90
21318;DHT22;10818;50.830;6.524;2023-07-20T21:20:36;18.50;99.90
21318;DHT22;10818;50.830;6.524;2023-07-20T21:25:37;18.30;99.90
21318;DHT22;10818;50.830;6.524;2023-07-20T21:30:38;18.50;99.90
21318;DHT22;10818;50.830;6.524;2023-07-20T21:35:42;18.70;99.90
21318;DHT22;10818;50.830;6.524;2023-07-20T21:40:43;18.70;99.90
21318;DHT22;10818;50.830;6.524;2023-07-20T21:45:44;18.70;99.90
21318;DHT22;10818;50.830;6.524;2023-07-20T21:50:48;18.50;99.90
21318;DHT22;10818;50.830;6.524;2023-07-20T21:55:48;18.50;99.90
21318;DHT22;10818;50.830;6.524;2023-07-20T22:00:49;18.50;99.90
21318;DHT22;10818;50.830;6.524;2023-07-20T22:05:55;18.20;99.90
21318;DHT22;10818;50.830;6.524;2023-07-20T22:10:57;18.30;99.90
21318;DHT22;10818;50.830;6.524;2023-07-20T22:16:04;18.30;99.90
21318;DHT22;10818;50.830;6.524;2023-07-20T22:21:05;18.10;99.90
21318;DHT22;10818;50.830;6.524;2023-07-20T22:26:05;18.20;99.90
21318;DHT22;10818;50.830;6.524;2023-07-20T22:31:06;18.10;99.90
21318;DHT22;10818;50.830;6.524;2023-07-20T22:36:06;17.90;99.90
21318;DHT22;10818;50.830;6.524;2023-07-20T22:41:07;17.80;99.90
21318;DHT22;10818;50.830;6.524;2023-07-20T22:46:07;18.00;99.90
21318;DHT22;10818;50.830;6.524;2023-07-20T22:51:08;18.00;99.90
21318;DHT22;10818;50.830;6.524;2023-07-20T22:56:08;18.20;99.90
21318;DHT22;10818;50.830;6.524;2023-07-20T23:01:09;18.10;99.90
21318;DHT22;10818;50.830;6.524;2023-07-20T23:06:12;17.90;99.90
21318;DHT22;10818;50.830;6.524;2023-07-20T23:11:13;17.80;99.90
21318;DHT22;10818;50.830;6.524;2023-07-20T23:16:14;17.60;99.90
21318;DHT22;10818;50.830;6.524;2023-07-20T23:21:15;17.50;99.90
21318;DHT22;10818;50.830;6.524;2023-07-20T23:26:15;17.10;99.90
21318;DHT22;10818;50.830;6.524;2023-07-20T23:31:16;17.10;99.90
21318;DHT22;10818;50.830;6.524;2023-07-20T23:36:16;17.10;99.90
21318;DHT22;10818;50.830;6.524;2023-07-20T23:41:17;17.10;99.90
21318;DHT22;10818;50.830;6.524;2023-07-20T23:46:17;17.20;99.90
21318;DHT22;10818;50.830;6.524;2023-07-20T23:51:23;17.10;99.90
21318;DHT22;10818;50.830;6.524;2023-07-20T23:56:24;17.00;99.90
